sensor_id;sensor_type;location;lat;lon;timestamp;temperature;humidity
41547;DHT22;27271;45.412;10.852;2023-02-13T00:02:04;2.80;1.00
41547;DHT22;27271;45.412;10.852;2023-02-13T00:05:26;2.80;1.00
41547;DHT22;27271;45.412;10.852;2023-02-13T00:08:48;2.70;1.00
41547;DHT22;27271;45.412;10.852;2023-02-13T00:12:10;2.70;1.00
41547;DHT22;27271;45.412;10.852;2023-02-13T00:15:32;2.70;1.00
41547;DHT22;27271;45.412;10.852;2023-02-13T00:18:55;2.70;1.00
41547;DHT22;27271;45.412;10.852;2023-02-13T00:22:17;2.70;1.00
41547;DHT22;27271;45.412;10.852;2023-02-13T00:25:39;2.60;1.00
41547;DHT22;27271;45.412;10.852;2023-02-13T00:29:03;2.60;1.00
41547;DHT22;27271;45.412;10.852;2023-02-13T00:32:25;2.60;1.00
41547;DHT22;27271;45.412;10.852;2023-02-13T00:35:48;2.60;1.00
41547;DHT22;27271;45.412;10.852;2023-02-13T00:39:11;2.50;1.00
41547;DHT22;27271;45.412;10.852;2023-02-13T00:42:33;2.50;1.00
41547;DHT22;27271;45.412;10.852;2023-02-13T00:45:55;2.50;1.80
41547;DHT22;27271;45.412;10.852;2023-02-13T00:49:19;2.50;1.70
41547;DHT22;27271;45.412;10.852;2023-02-13T00:52:41;2.50;8.50
41547;DHT22;27271;45.412;10.852;2023-02-13T00:56:04;2.50;3.80
41547;DHT22;27271;45.412;10.852;2023-02-13T00:59:26;2.60;1.00
41547;DHT22;27271;45.412;10.852;2023-02-13T01:02:48;2.70;1.00
41547;DHT22;27271;45.412;10.852;2023-02-13T01:06:12;2.70;1.00
41547;DHT22;27271;45.412;10.852;2023-02-13T01:09:34;2.80;1.00
41547;DHT22;27271;45.412;10.852;2023-02-13T01:12:56;2.80;1.00
41547;DHT22;27271;45.412;10.852;2023-02-13T01:16:18;2.80;1.00
41547;DHT22;27271;45.412;10.852;2023-02-13T01:19:40;2.80;1.00
41547;DHT22;27271;45.412;10.852;2023-02-13T01:23:04;2.90;1.00
41547;DHT22;27271;45.412;10.852;2023-02-13T01:26:26;2.90;1.00
41547;DHT22;27271;45.412;10.852;2023-02-13T01:29:48;3.00;1.00
41547;DHT22;27271;45.412;10.852;2023-02-13T01:33:11;2.90;1.00
41547;DHT22;27271;45.412;10.852;2023-02-13T01:36:33;2.90;1.00
41547;DHT22;27271;45.412;10.852;2023-02-13T01:39:55;2.90;1.00
41547;DHT22;27271;45.412;10.852;2023-02-13T01:43:18;3.00;1.00
41547;DHT22;27271;45.412;10.852;2023-02-13T01:46:42;3.00;1.00
41547;DHT22;27271;45.412;10.852;2023-02-13T01:50:12;3.10;1.00
41547;DHT22;27271;45.412;10.852;2023-02-13T01:53:45;3.10;1.00
41547;DHT22;27271;45.412;10.852;2023-02-13T01:57:20;3.00;1.00
41547;DHT22;27271;45.412;10.852;2023-02-13T02:00:45;3.00;1.00
41547;DHT22;27271;45.412;10.852;2023-02-13T02:04:20;3.00;1.00
41547;DHT22;27271;45.412;10.852;2023-02-13T02:07:44;3.00;1.00
41547;DHT22;27271;45.412;10.852;2023-02-13T02:11:25;3.10;1.00
41547;DHT22;27271;45.412;10.852;2023-02-13T02:14:53;3.20;1.00
41547;DHT22;27271;45.412;10.852;2023-02-13T02:18:20;3.20;1.00
41547;DHT22;27271;45.412;10.852;2023-02-13T02:21:55;3.20;1.00
41547;DHT22;27271;45.412;10.852;2023-02-13T02:44:06;3.00;15.70
41547;DHT22;27271;45.412;10.852;2023-02-13T02:47:44;2.90;29.80
41547;DHT22;27271;45.412;10.852;2023-02-13T02:51:54;2.80;41.80
41547;DHT22;27271;45.412;10.852;2023-02-13T02:59:15;2.40;88.40
41547;DHT22;27271;45.412;10.852;2023-02-13T03:02:57;2.20;96.70
41547;DHT22;27271;45.412;10.852;2023-02-13T03:06:46;2.10;99.90
41547;DHT22;27271;45.412;10.852;2023-02-13T03:10:24;1.90;99.90
41547;DHT22;27271;45.412;10.852;2023-02-13T03:14:08;1.70;99.90
41547;DHT22;27271;45.412;10.852;2023-02-13T03:17:31;1.50;99.90
41547;DHT22;27271;45.412;10.852;2023-02-13T03:29:08;1.10;1.00
41547;DHT22;27271;45.412;10.852;2023-02-13T03:44:38;0.80;1.00
41547;DHT22;27271;45.412;10.852;2023-02-13T03:48:03;0.70;99.90
41547;DHT22;27271;45.412;10.852;2023-02-13T03:51:37;0.70;99.90
41547;DHT22;27271;45.412;10.852;2023-02-13T03:55:05;0.60;99.90
41547;DHT22;27271;45.412;10.852;2023-02-13T03:58:50;0.60;99.90
41547;DHT22;27271;45.412;10.852;2023-02-13T04:02:33;0.60;99.90
41547;DHT22;27271;45.412;10.852;2023-02-13T04:06:13;0.50;99.90
41547;DHT22;27271;45.412;10.852;2023-02-13T04:09:41;0.60;99.90
41547;DHT22;27271;45.412;10.852;2023-02-13T04:13:18;0.50;99.90
41547;DHT22;27271;45.412;10.852;2023-02-13T04:16:46;0.50;99.90
41547;DHT22;27271;45.412;10.852;2023-02-13T04:20:10;0.50;99.90
41547;DHT22;27271;45.412;10.852;2023-02-13T04:23:33;0.50;99.90
41547;DHT22;27271;45.412;10.852;2023-02-13T04:26:57;0.40;99.90
41547;DHT22;27271;45.412;10.852;2023-02-13T04:30:20;0.40;99.90
41547;DHT22;27271;45.412;10.852;2023-02-13T04:33:42;0.40;99.90
41547;DHT22;27271;45.412;10.852;2023-02-13T04:37:04;0.40;99.90
41547;DHT22;27271;45.412;10.852;2023-02-13T04:40:26;0.40;99.90
41547;DHT22;27271;45.412;10.852;2023-02-13T04:43:48;0.40;99.90
41547;DHT22;27271;45.412;10.852;2023-02-13T04:47:10;0.30;99.90
41547;DHT22;27271;45.412;10.852;2023-02-13T04:50:32;0.30;99.90
41547;DHT22;27271;45.412;10.852;2023-02-13T04:53:54;0.20;99.90
41547;DHT22;27271;45.412;10.852;2023-02-13T04:57:16;0.20;99.90
41547;DHT22;27271;45.412;10.852;2023-02-13T05:00:38;0.10;99.90
41547;DHT22;27271;45.412;10.852;2023-02-13T05:04:01;0.10;99.90
41547;DHT22;27271;45.412;10.852;2023-02-13T05:07:23;0.20;99.90
41547;DHT22;27271;45.412;10.852;2023-02-13T05:10:45;0.20;99.90
41547;DHT22;27271;45.412;10.852;2023-02-13T05:14:08;0.10;99.90
41547;DHT22;27271;45.412;10.852;2023-02-13T05:17:30;0.10;99.90
41547;DHT22;27271;45.412;10.852;2023-02-13T05:20:52;0.00;1.00
41547;DHT22;27271;45.412;10.852;2023-02-13T05:24:33;0.10;1.00
41547;DHT22;27271;45.412;10.852;2023-02-13T05:27:55;0.10;1.00
41547;DHT22;27271;45.412;10.852;2023-02-13T05:31:17;0.10;99.90
41547;DHT22;27271;45.412;10.852;2023-02-13T05:34:39;0.10;99.90
41547;DHT22;27271;45.412;10.852;2023-02-13T05:38:01;0.00;99.90
41547;DHT22;27271;45.412;10.852;2023-02-13T05:41:23;-0.10;99.90
41547;DHT22;27271;45.412;10.852;2023-02-13T05:44:45;-0.20;99.90
41547;DHT22;27271;45.412;10.852;2023-02-13T05:48:07;-0.30;99.90
41547;DHT22;27271;45.412;10.852;2023-02-13T05:51:30;-0.30;99.90
41547;DHT22;27271;45.412;10.852;2023-02-13T05:54:59;-0.40;99.90
41547;DHT22;27271;45.412;10.852;2023-02-13T05:58:24;-0.40;99.90
41547;DHT22;27271;45.412;10.852;2023-02-13T06:01:46;-0.40;1.00
41547;DHT22;27271;45.412;10.852;2023-02-13T06:05:09;-0.30;99.90
41547;DHT22;27271;45.412;10.852;2023-02-13T06:08:33;-0.20;99.90
41547;DHT22;27271;45.412;10.852;2023-02-13T06:11:56;-0.20;99.90
41547;DHT22;27271;45.412;10.852;2023-02-13T06:15:20;-0.20;99.90
41547;DHT22;27271;45.412;10.852;2023-02-13T06:18:43;-0.30;99.90
41547;DHT22;27271;45.412;10.852;2023-02-13T06:22:07;-0.40;99.90
41547;DHT22;27271;45.412;10.852;2023-02-13T06:25:33;-0.40;99.90
41547;DHT22;27271;45.412;10.852;2023-02-13T06:28:59;-0.40;1.00
41547;DHT22;27271;45.412;10.852;2023-02-13T06:32:42;-0.50;99.90
41547;DHT22;27271;45.412;10.852;2023-02-13T06:36:06;-0.40;1.00
41547;DHT22;27271;45.412;10.852;2023-02-13T06:39:28;-0.40;1.00
41547;DHT22;27271;45.412;10.852;2023-02-13T06:42:53;-0.40;1.00
41547;DHT22;27271;45.412;10.852;2023-02-13T06:46:15;-0.30;1.00
41547;DHT22;27271;45.412;10.852;2023-02-13T06:49:38;-0.30;1.00
41547;DHT22;27271;45.412;10.852;2023-02-13T06:53:00;-0.20;1.00
41547;DHT22;27271;45.412;10.852;2023-02-13T06:56:26;-0.10;1.00
41547;DHT22;27271;45.412;10.852;2023-02-13T06:59:49;-0.10;1.00
41547;DHT22;27271;45.412;10.852;2023-02-13T07:03:11;0.10;1.00
41547;DHT22;27271;45.412;10.852;2023-02-13T07:06:33;0.30;1.00
41547;DHT22;27271;45.412;10.852;2023-02-13T07:09:56;0.50;1.00
41547;DHT22;27271;45.412;10.852;2023-02-13T07:13:19;0.80;99.90
41547;DHT22;27271;45.412;10.852;2023-02-13T07:16:44;1.00;99.90
41547;DHT22;27271;45.412;10.852;2023-02-13T07:20:09;1.30;99.90
41547;DHT22;27271;45.412;10.852;2023-02-13T07:23:36;1.60;1.00
41547;DHT22;27271;45.412;10.852;2023-02-13T07:27:04;2.40;1.00
41547;DHT22;27271;45.412;10.852;2023-02-13T07:30:42;4.10;82.80
41547;DHT22;27271;45.412;10.852;2023-02-13T07:34:09;5.30;1.00
41547;DHT22;27271;45.412;10.852;2023-02-13T07:37:36;5.90;1.00
41547;DHT22;27271;45.412;10.852;2023-02-13T07:41:03;5.90;1.00
41547;DHT22;27271;45.412;10.852;2023-02-13T07:44:27;6.00;1.00
41547;DHT22;27271;45.412;10.852;2023-02-13T07:47:55;6.00;1.00
41547;DHT22;27271;45.412;10.852;2023-02-13T07:51:22;6.80;1.00
41547;DHT22;27271;45.412;10.852;2023-02-13T07:54:47;8.20;1.00
41547;DHT22;27271;45.412;10.852;2023-02-13T07:58:25;10.10;1.00
41547;DHT22;27271;45.412;10.852;2023-02-13T08:01:51;12.30;1.00
41547;DHT22;27271;45.412;10.852;2023-02-13T08:05:14;13.60;1.00
41547;DHT22;27271;45.412;10.852;2023-02-13T08:08:41;14.80;1.00
41547;DHT22;27271;45.412;10.852;2023-02-13T08:12:07;15.00;1.00
41547;DHT22;27271;45.412;10.852;2023-02-13T08:15:38;15.50;1.00
41547;DHT22;27271;45.412;10.852;2023-02-13T08:19:51;16.50;1.00
41547;DHT22;27271;45.412;10.852;2023-02-13T08:23:20;16.80;1.00
41547;DHT22;27271;45.412;10.852;2023-02-13T08:26:54;15.70;1.00
41547;DHT22;27271;45.412;10.852;2023-02-13T08:30:19;15.50;1.00
41547;DHT22;27271;45.412;10.852;2023-02-13T08:33:43;14.70;1.00
41547;DHT22;27271;45.412;10.852;2023-02-13T08:37:06;15.30;1.00
41547;DHT22;27271;45.412;10.852;2023-02-13T08:41:06;15.40;1.00
41547;DHT22;27271;45.412;10.852;2023-02-13T08:44:30;15.70;1.00
41547;DHT22;27271;45.412;10.852;2023-02-13T08:47:57;16.30;1.00
41547;DHT22;27271;45.412;10.852;2023-02-13T08:51:39;16.10;1.00
41547;DHT22;27271;45.412;10.852;2023-02-13T08:55:08;15.80;1.00
41547;DHT22;27271;45.412;10.852;2023-02-13T08:58:30;16.60;1.00
41547;DHT22;27271;45.412;10.852;2023-02-13T09:01:53;17.50;1.00
41547;DHT22;27271;45.412;10.852;2023-02-13T09:05:15;18.20;1.00
41547;DHT22;27271;45.412;10.852;2023-02-13T09:08:37;18.30;1.00
41547;DHT22;27271;45.412;10.852;2023-02-13T09:11:59;18.80;1.00
41547;DHT22;27271;45.412;10.852;2023-02-13T09:15:22;18.70;1.00
41547;DHT22;27271;45.412;10.852;2023-02-13T09:18:46;17.90;1.00
41547;DHT22;27271;45.412;10.852;2023-02-13T09:22:09;17.40;1.00
41547;DHT22;27271;45.412;10.852;2023-02-13T09:25:31;17.60;1.00
41547;DHT22;27271;45.412;10.852;2023-02-13T09:28:53;18.20;1.00
41547;DHT22;27271;45.412;10.852;2023-02-13T09:32:15;19.00;1.00
41547;DHT22;27271;45.412;10.852;2023-02-13T09:35:37;19.10;1.00
41547;DHT22;27271;45.412;10.852;2023-02-13T09:39:02;18.00;1.00
41547;DHT22;27271;45.412;10.852;2023-02-13T09:42:31;18.20;1.00
41547;DHT22;27271;45.412;10.852;2023-02-13T09:45:58;18.70;1.00
41547;DHT22;27271;45.412;10.852;2023-02-13T09:49:25;18.40;1.00
41547;DHT22;27271;45.412;10.852;2023-02-13T09:52:50;18.60;1.00
41547;DHT22;27271;45.412;10.852;2023-02-13T09:56:15;18.30;1.00
41547;DHT22;27271;45.412;10.852;2023-02-13T10:03:22;17.50;1.00
41547;DHT22;27271;45.412;10.852;2023-02-13T10:10:59;16.40;1.00
41547;DHT22;27271;45.412;10.852;2023-02-13T10:18:37;17.30;1.00
41547;DHT22;27271;45.412;10.852;2023-02-13T10:36:43;16.70;1.00
41547;DHT22;27271;45.412;10.852;2023-02-13T10:40:09;17.50;1.00
41547;DHT22;27271;45.412;10.852;2023-02-13T10:51:28;17.70;1.00
41547;DHT22;27271;45.412;10.852;2023-02-13T11:05:40;17.30;1.00
41547;DHT22;27271;45.412;10.852;2023-02-13T11:09:04;16.40;1.00
41547;DHT22;27271;45.412;10.852;2023-02-13T11:12:30;16.90;1.00
41547;DHT22;27271;45.412;10.852;2023-02-13T11:16:06;17.20;1.00
41547;DHT22;27271;45.412;10.852;2023-02-13T11:19:33;16.30;1.00
41547;DHT22;27271;45.412;10.852;2023-02-13T11:22:56;16.10;1.00
41547;DHT22;27271;45.412;10.852;2023-02-13T11:26:34;16.30;1.00
41547;DHT22;27271;45.412;10.852;2023-02-13T11:30:03;16.20;1.00
41547;DHT22;27271;45.412;10.852;2023-02-13T11:33:27;15.80;1.00
41547;DHT22;27271;45.412;10.852;2023-02-13T11:40:50;15.50;1.00
41547;DHT22;27271;45.412;10.852;2023-02-13T11:44:31;16.00;1.00
41547;DHT22;27271;45.412;10.852;2023-02-13T11:47:54;15.90;1.00
41547;DHT22;27271;45.412;10.852;2023-02-13T11:51:27;15.90;1.00
41547;DHT22;27271;45.412;10.852;2023-02-13T11:55:38;15.90;1.00
41547;DHT22;27271;45.412;10.852;2023-02-13T11:59:01;15.20;1.00
41547;DHT22;27271;45.412;10.852;2023-02-13T12:02:43;15.30;1.00
41547;DHT22;27271;45.412;10.852;2023-02-13T12:06:14;15.70;1.00
41547;DHT22;27271;45.412;10.852;2023-02-13T12:09:38;15.90;1.00
41547;DHT22;27271;45.412;10.852;2023-02-13T12:13:19;15.70;1.00
41547;DHT22;27271;45.412;10.852;2023-02-13T12:16:56;15.50;1.00
41547;DHT22;27271;45.412;10.852;2023-02-13T12:20:24;15.40;1.00
41547;DHT22;27271;45.412;10.852;2023-02-13T12:27:43;15.10;1.00
41547;DHT22;27271;45.412;10.852;2023-02-13T12:31:31;15.20;1.00
41547;DHT22;27271;45.412;10.852;2023-02-13T12:46:57;14.70;1.00
41547;DHT22;27271;45.412;10.852;2023-02-13T12:54:02;14.60;1.00
41547;DHT22;27271;45.412;10.852;2023-02-13T12:57:35;14.30;1.00
41547;DHT22;27271;45.412;10.852;2023-02-13T13:11:48;14.40;1.00
41547;DHT22;27271;45.412;10.852;2023-02-13T13:18:58;14.00;1.00
41547;DHT22;27271;45.412;10.852;2023-02-13T13:22:37;14.00;1.00
41547;DHT22;27271;45.412;10.852;2023-02-13T13:29:44;14.40;1.00
41547;DHT22;27271;45.412;10.852;2023-02-13T13:36:52;14.10;1.00
41547;DHT22;27271;45.412;10.852;2023-02-13T13:50:54;14.30;1.00
41547;DHT22;27271;45.412;10.852;2023-02-13T13:54:23;14.00;1.00
41547;DHT22;27271;45.412;10.852;2023-02-13T14:01:26;14.00;1.00
41547;DHT22;27271;45.412;10.852;2023-02-13T14:05:29;14.00;1.00
41547;DHT22;27271;45.412;10.852;2023-02-13T14:09:00;13.80;1.00
41547;DHT22;27271;45.412;10.852;2023-02-13T14:15:51;13.50;1.00
41547;DHT22;27271;45.412;10.852;2023-02-13T14:22:49;13.50;1.00
41547;DHT22;27271;45.412;10.852;2023-02-13T14:29:36;13.50;1.00
41547;DHT22;27271;45.412;10.852;2023-02-13T14:33:04;13.40;1.00
41547;DHT22;27271;45.412;10.852;2023-02-13T14:36:38;13.30;1.00
41547;DHT22;27271;45.412;10.852;2023-02-13T14:40:56;13.20;1.00
41547;DHT22;27271;45.412;10.852;2023-02-13T14:43:54;13.20;1.00
41547;DHT22;27271;45.412;10.852;2023-02-13T14:47:27;13.00;1.00
41547;DHT22;27271;45.412;10.852;2023-02-13T14:50:55;12.90;1.00
41547;DHT22;27271;45.412;10.852;2023-02-13T14:54:37;12.90;1.00
41547;DHT22;27271;45.412;10.852;2023-02-13T14:58:15;12.70;1.00
41547;DHT22;27271;45.412;10.852;2023-02-13T15:02:23;12.60;1.00
41547;DHT22;27271;45.412;10.852;2023-02-13T15:05:50;12.50;1.00
41547;DHT22;27271;45.412;10.852;2023-02-13T15:09:40;12.40;1.00
41547;DHT22;27271;45.412;10.852;2023-02-13T15:13:16;12.40;1.00
41547;DHT22;27271;45.412;10.852;2023-02-13T15:16:39;12.20;1.00
41547;DHT22;27271;45.412;10.852;2023-02-13T15:24:02;12.10;1.00
41547;DHT22;27271;45.412;10.852;2023-02-13T15:27:27;11.90;1.00
41547;DHT22;27271;45.412;10.852;2023-02-13T15:31:01;11.80;1.00
41547;DHT22;27271;45.412;10.852;2023-02-13T15:34:31;11.80;1.00
41547;DHT22;27271;45.412;10.852;2023-02-13T15:38:19;11.70;1.00
41547;DHT22;27271;45.412;10.852;2023-02-13T15:41:45;11.60;1.00
41547;DHT22;27271;45.412;10.852;2023-02-13T15:45:18;11.50;1.00
41547;DHT22;27271;45.412;10.852;2023-02-13T15:48:42;11.50;1.00
41547;DHT22;27271;45.412;10.852;2023-02-13T15:52:15;11.40;1.00
41547;DHT22;27271;45.412;10.852;2023-02-13T15:55:39;11.30;1.00
41547;DHT22;27271;45.412;10.852;2023-02-13T15:59:01;11.10;1.00
41547;DHT22;27271;45.412;10.852;2023-02-13T16:02:39;11.00;1.00
41547;DHT22;27271;45.412;10.852;2023-02-13T16:06:03;10.80;1.00
41547;DHT22;27271;45.412;10.852;2023-02-13T16:09:31;10.70;1.00
41547;DHT22;27271;45.412;10.852;2023-02-13T16:12:55;10.40;1.00
41547;DHT22;27271;45.412;10.852;2023-02-13T16:16:17;10.20;1.00
41547;DHT22;27271;45.412;10.852;2023-02-13T16:19:59;9.90;1.00
41547;DHT22;27271;45.412;10.852;2023-02-13T16:23:22;9.70;1.00
41547;DHT22;27271;45.412;10.852;2023-02-13T16:26:45;9.40;1.00
41547;DHT22;27271;45.412;10.852;2023-02-13T16:33:42;8.90;1.00
41547;DHT22;27271;45.412;10.852;2023-02-13T16:37:30;8.70;1.00
41547;DHT22;27271;45.412;10.852;2023-02-13T16:40:54;8.50;1.00
41547;DHT22;27271;45.412;10.852;2023-02-13T16:44:22;8.20;1.00
41547;DHT22;27271;45.412;10.852;2023-02-13T16:47:44;8.10;1.00
41547;DHT22;27271;45.412;10.852;2023-02-13T16:51:07;7.90;1.00
41547;DHT22;27271;45.412;10.852;2023-02-13T16:54:53;7.70;1.00
41547;DHT22;27271;45.412;10.852;2023-02-13T16:58:17;7.50;1.00
41547;DHT22;27271;45.412;10.852;2023-02-13T17:01:39;7.40;1.00
41547;DHT22;27271;45.412;10.852;2023-02-13T17:08:31;7.10;1.00
41547;DHT22;27271;45.412;10.852;2023-02-13T17:11:53;7.00;4.50
41547;DHT22;27271;45.412;10.852;2023-02-13T17:15:18;6.90;9.70
41547;DHT22;27271;45.412;10.852;2023-02-13T17:18:40;6.80;17.50
41547;DHT22;27271;45.412;10.852;2023-02-13T17:22:02;6.70;18.90
41547;DHT22;27271;45.412;10.852;2023-02-13T17:25:30;6.60;30.50
41547;DHT22;27271;45.412;10.852;2023-02-13T17:28:53;6.50;36.90
41547;DHT22;27271;45.412;10.852;2023-02-13T17:32:17;6.40;65.90
41547;DHT22;27271;45.412;10.852;2023-02-13T17:35:40;6.40;50.70
41547;DHT22;27271;45.412;10.852;2023-02-13T17:39:02;6.20;56.90
41547;DHT22;27271;45.412;10.852;2023-02-13T17:42:26;6.10;87.80
41547;DHT22;27271;45.412;10.852;2023-02-13T17:45:49;6.10;95.10
41547;DHT22;27271;45.412;10.852;2023-02-13T17:49:11;6.00;97.00
41547;DHT22;27271;45.412;10.852;2023-02-13T17:52:35;5.90;99.90
41547;DHT22;27271;45.412;10.852;2023-02-13T17:55:58;5.80;99.90
41547;DHT22;27271;45.412;10.852;2023-02-13T17:59:20;5.70;99.90
41547;DHT22;27271;45.412;10.852;2023-02-13T18:02:42;5.60;99.90
41547;DHT22;27271;45.412;10.852;2023-02-13T18:06:04;5.50;99.90
41547;DHT22;27271;45.412;10.852;2023-02-13T18:09:27;5.50;99.90
41547;DHT22;27271;45.412;10.852;2023-02-13T18:12:50;5.40;99.90
41547;DHT22;27271;45.412;10.852;2023-02-13T18:16:12;5.40;99.90
41547;DHT22;27271;45.412;10.852;2023-02-13T18:19:34;5.40;99.90
41547;DHT22;27271;45.412;10.852;2023-02-13T18:22:57;5.40;99.90
41547;DHT22;27271;45.412;10.852;2023-02-13T18:26:20;5.30;99.90
41547;DHT22;27271;45.412;10.852;2023-02-13T18:29:42;5.30;99.90
41547;DHT22;27271;45.412;10.852;2023-02-13T18:33:13;5.20;99.90
41547;DHT22;27271;45.412;10.852;2023-02-13T18:36:54;5.20;99.90
41547;DHT22;27271;45.412;10.852;2023-02-13T18:40:17;5.20;99.90
41547;DHT22;27271;45.412;10.852;2023-02-13T18:43:39;5.10;99.90
41547;DHT22;27271;45.412;10.852;2023-02-13T18:47:01;5.00;99.90
41547;DHT22;27271;45.412;10.852;2023-02-13T18:50:23;4.80;99.90
41547;DHT22;27271;45.412;10.852;2023-02-13T18:53:45;4.70;99.90
41547;DHT22;27271;45.412;10.852;2023-02-13T18:57:07;4.60;99.90
41547;DHT22;27271;45.412;10.852;2023-02-13T19:00:29;4.40;99.90
41547;DHT22;27271;45.412;10.852;2023-02-13T19:03:52;4.30;99.90
41547;DHT22;27271;45.412;10.852;2023-02-13T19:07:14;4.30;99.90
41547;DHT22;27271;45.412;10.852;2023-02-13T19:10:36;4.20;99.90
41547;DHT22;27271;45.412;10.852;2023-02-13T19:13:59;4.10;99.90
41547;DHT22;27271;45.412;10.852;2023-02-13T19:17:21;4.00;99.90
41547;DHT22;27271;45.412;10.852;2023-02-13T19:20:43;4.00;1.00
41547;DHT22;27271;45.412;10.852;2023-02-13T19:24:07;4.00;1.00
41547;DHT22;27271;45.412;10.852;2023-02-13T19:27:30;4.00;1.00
41547;DHT22;27271;45.412;10.852;2023-02-13T19:30:51;3.90;1.00
41547;DHT22;27271;45.412;10.852;2023-02-13T19:34:14;3.90;1.00
41547;DHT22;27271;45.412;10.852;2023-02-13T19:37:36;3.80;1.00
41547;DHT22;27271;45.412;10.852;2023-02-13T19:41:06;3.60;1.00
41547;DHT22;27271;45.412;10.852;2023-02-13T19:44:28;3.50;1.00
41547;DHT22;27271;45.412;10.852;2023-02-13T19:47:50;3.40;1.00
41547;DHT22;27271;45.412;10.852;2023-02-13T19:51:24;3.30;99.90
41547;DHT22;27271;45.412;10.852;2023-02-13T19:54:48;3.30;89.00
41547;DHT22;27271;45.412;10.852;2023-02-13T19:58:10;3.20;99.90
41547;DHT22;27271;45.412;10.852;2023-02-13T20:01:33;3.10;99.90
41547;DHT22;27271;45.412;10.852;2023-02-13T20:04:56;3.10;99.90
41547;DHT22;27271;45.412;10.852;2023-02-13T20:08:18;3.10;99.90
41547;DHT22;27271;45.412;10.852;2023-02-13T20:11:40;3.00;99.90
41547;DHT22;27271;45.412;10.852;2023-02-13T20:15:04;2.90;99.90
41547;DHT22;27271;45.412;10.852;2023-02-13T20:18:26;2.80;99.90
41547;DHT22;27271;45.412;10.852;2023-02-13T20:21:48;2.80;1.00
41547;DHT22;27271;45.412;10.852;2023-02-13T20:25:10;2.70;99.90
41547;DHT22;27271;45.412;10.852;2023-02-13T20:28:32;2.70;1.00
41547;DHT22;27271;45.412;10.852;2023-02-13T20:31:54;2.70;1.00
41547;DHT22;27271;45.412;10.852;2023-02-13T20:35:23;2.70;1.00
41547;DHT22;27271;45.412;10.852;2023-02-13T20:38:51;2.70;99.90
41547;DHT22;27271;45.412;10.852;2023-02-13T20:42:18;2.70;99.90
41547;DHT22;27271;45.412;10.852;2023-02-13T20:45:44;2.60;99.90
41547;DHT22;27271;45.412;10.852;2023-02-13T20:49:18;2.50;99.90
41547;DHT22;27271;45.412;10.852;2023-02-13T20:52:44;2.30;99.90
41547;DHT22;27271;45.412;10.852;2023-02-13T20:56:11;2.30;1.00
41547;DHT22;27271;45.412;10.852;2023-02-13T20:59:34;2.20;1.00
41547;DHT22;27271;45.412;10.852;2023-02-13T21:02:56;2.20;1.00
41547;DHT22;27271;45.412;10.852;2023-02-13T21:06:19;2.10;1.00
41547;DHT22;27271;45.412;10.852;2023-02-13T21:09:42;2.10;37.20
41547;DHT22;27271;45.412;10.852;2023-02-13T21:13:05;2.10;21.90
41547;DHT22;27271;45.412;10.852;2023-02-13T21:16:31;2.10;99.90
41547;DHT22;27271;45.412;10.852;2023-02-13T21:19:54;2.10;99.90
41547;DHT22;27271;45.412;10.852;2023-02-13T21:23:16;2.10;99.90
41547;DHT22;27271;45.412;10.852;2023-02-13T21:26:39;2.20;99.90
41547;DHT22;27271;45.412;10.852;2023-02-13T21:30:01;2.20;99.90
41547;DHT22;27271;45.412;10.852;2023-02-13T21:33:23;2.20;99.90
41547;DHT22;27271;45.412;10.852;2023-02-13T21:36:46;2.10;99.90
41547;DHT22;27271;45.412;10.852;2023-02-13T21:40:08;2.10;99.90
41547;DHT22;27271;45.412;10.852;2023-02-13T21:43:30;2.00;99.90
41547;DHT22;27271;45.412;10.852;2023-02-13T21:46:52;2.00;99.90
41547;DHT22;27271;45.412;10.852;2023-02-13T21:50:15;1.90;99.90
41547;DHT22;27271;45.412;10.852;2023-02-13T21:53:37;1.80;99.90
41547;DHT22;27271;45.412;10.852;2023-02-13T21:56:59;1.70;99.90
41547;DHT22;27271;45.412;10.852;2023-02-13T22:00:22;1.60;99.90
41547;DHT22;27271;45.412;10.852;2023-02-13T22:03:45;1.50;99.90
41547;DHT22;27271;45.412;10.852;2023-02-13T22:07:11;1.50;99.90
41547;DHT22;27271;45.412;10.852;2023-02-13T22:10:35;1.50;99.90
41547;DHT22;27271;45.412;10.852;2023-02-13T22:14:11;1.60;99.90
41547;DHT22;27271;45.412;10.852;2023-02-13T22:17:34;1.60;99.90
41547;DHT22;27271;45.412;10.852;2023-02-13T22:21:15;1.70;99.90
41547;DHT22;27271;45.412;10.852;2023-02-13T22:24:47;1.70;99.90
41547;DHT22;27271;45.412;10.852;2023-02-13T22:28:16;1.70;99.90
41547;DHT22;27271;45.412;10.852;2023-02-13T22:31:39;1.70;99.90
41547;DHT22;27271;45.412;10.852;2023-02-13T22:35:01;1.80;99.90
41547;DHT22;27271;45.412;10.852;2023-02-13T22:38:33;1.80;99.90
41547;DHT22;27271;45.412;10.852;2023-02-13T22:42:00;1.80;99.90
41547;DHT22;27271;45.412;10.852;2023-02-13T22:45:24;1.80;99.90
41547;DHT22;27271;45.412;10.852;2023-02-13T22:48:50;1.80;99.90
41547;DHT22;27271;45.412;10.852;2023-02-13T22:52:15;1.70;99.90
41547;DHT22;27271;45.412;10.852;2023-02-13T22:55:37;1.80;99.90
41547;DHT22;27271;45.412;10.852;2023-02-13T22:59:03;2.00;99.90
41547;DHT22;27271;45.412;10.852;2023-02-13T23:02:26;2.20;99.90
41547;DHT22;27271;45.412;10.852;2023-02-13T23:05:50;2.30;99.90
41547;DHT22;27271;45.412;10.852;2023-02-13T23:09:16;2.40;99.90
41547;DHT22;27271;45.412;10.852;2023-02-13T23:12:45;2.50;1.00
41547;DHT22;27271;45.412;10.852;2023-02-13T23:16:21;2.60;1.00
41547;DHT22;27271;45.412;10.852;2023-02-13T23:19:44;2.60;1.00
41547;DHT22;27271;45.412;10.852;2023-02-13T23:23:07;2.60;1.00
41547;DHT22;27271;45.412;10.852;2023-02-13T23:26:31;2.70;1.00
41547;DHT22;27271;45.412;10.852;2023-02-13T23:29:57;2.70;1.00
41547;DHT22;27271;45.412;10.852;2023-02-13T23:33:29;2.70;1.00
41547;DHT22;27271;45.412;10.852;2023-02-13T23:36:52;2.60;1.00
41547;DHT22;27271;45.412;10.852;2023-02-13T23:40:15;2.60;1.00
41547;DHT22;27271;45.412;10.852;2023-02-13T23:43:41;2.60;1.00
41547;DHT22;27271;45.412;10.852;2023-02-13T23:47:12;2.70;1.00
41547;DHT22;27271;45.412;10.852;2023-02-13T23:50:38;2.60;1.00
41547;DHT22;27271;45.412;10.852;2023-02-13T23:54:01;2.50;1.00
41547;DHT22;27271;45.412;10.852;2023-02-13T23:57:28;2.60;1.00
